메인 페이지
METAR-TAF:

METAR-TAF

공항 :

아테네 국제공항

아테네, 그리스

위도: 37-56N, 경도: 023-56E, 고도: 94m

현재 날씨관측

예보는 28분 전, 14:20시(UTC)에 발표되었습니다.
북동19kt
온도 26°C
습도 42%
기압 1011 hPa
시정 10km 이상
고도 3000ft 상공 구름 보통

METAR: LGAV 251420Z 05019KT 9999 SCT030 26/12 Q1011 NOSIG

시각: 17:48 (14:48 UTC)

예보

예보는 3 시간 48분 전, 11:00시(UTC)에 발표되었습니다.
예보 대상 시간: 25일 12시부터 26일 12시까지 (UTC)
북북동18kt, 순간 최대 풍속 28kt
시정 10km 이상
고도 2500ft 상공 구름 조금
고도 3500ft 상공 구름 보통
전환 중
26일 06시부터 26일 08시까지 (UTC)
북북동25kt, 순간 최대 풍속 35kt
고도 2000ft 상공 구름 조금
고도 6000ft 상공 구름 보통

TAF: LGAV 251100Z 2512/2612 02018G28KT 9999 FEW025 SCT035 BECMG 2606/2608 02025G35KT FEW020 SCT060

4,000개 이상의 공항 관측 자료 및 예보 (METAR 및 TAF 보고).

지도상에서 검색 가능한 기상관측소가 노란 점과 빨간 점으로 표시되어 있습니다.

기상관측소 명을 보려면 표시 위로 마우스를 이동하세요.

날씨 관측과 예보를 보려면 클릭하세요.

지도 변경 : 확대하려면 엑스 표시가 있는 녹색 버튼, 축소하려면 빼기 표시가 있는 녹색 버튼, 다음 페이지의 지도를 보려면 녹색 화살표를 클릭하세요.


METAR-TAF: